sensor_id;sensor_type;location;lat;lon;timestamp;temperature;humidity
5118;DHT22;2578;51.622;7.046;2023-07-09T00:02:05;20.30;99.90
5118;DHT22;2578;51.622;7.046;2023-07-09T00:04:31;20.40;99.90
5118;DHT22;2578;51.622;7.046;2023-07-09T00:07:01;20.40;99.90
5118;DHT22;2578;51.622;7.046;2023-07-09T00:09:28;20.30;99.90
5118;DHT22;2578;51.622;7.046;2023-07-09T00:11:53;20.30;99.90
5118;DHT22;2578;51.622;7.046;2023-07-09T00:14:20;20.40;99.90
5118;DHT22;2578;51.622;7.046;2023-07-09T00:16:46;20.40;99.90
5118;DHT22;2578;51.622;7.046;2023-07-09T00:19:20;20.40;99.90
5118;DHT22;2578;51.622;7.046;2023-07-09T00:21:49;20.50;99.90
5118;DHT22;2578;51.622;7.046;2023-07-09T00:24:18;20.60;99.90
5118;DHT22;2578;51.622;7.046;2023-07-09T00:26:45;20.60;99.90
5118;DHT22;2578;51.622;7.046;2023-07-09T00:29:12;20.60;99.90
5118;DHT22;2578;51.622;7.046;2023-07-09T00:31:38;20.60;99.90
5118;DHT22;2578;51.622;7.046;2023-07-09T00:34:10;20.60;99.90
5118;DHT22;2578;51.622;7.046;2023-07-09T00:36:39;20.50;99.90
5118;DHT22;2578;51.622;7.046;2023-07-09T00:39:18;20.50;99.90
5118;DHT22;2578;51.622;7.046;2023-07-09T00:41:44;20.40;99.90
5118;DHT22;2578;51.622;7.046;2023-07-09T00:44:28;20.30;99.90
5118;DHT22;2578;51.622;7.046;2023-07-09T00:47:49;20.30;99.90
5118;DHT22;2578;51.622;7.046;2023-07-09T00:50:34;20.10;99.90
5118;DHT22;2578;51.622;7.046;2023-07-09T00:53:10;20.00;99.90
5118;DHT22;2578;51.622;7.046;2023-07-09T00:55:39;19.80;99.90
5118;DHT22;2578;51.622;7.046;2023-07-09T00:58:09;22.00;99.90
5118;DHT22;2578;51.622;7.046;2023-07-09T01:00:39;19.70;99.90
5118;DHT22;2578;51.622;7.046;2023-07-09T01:03:23;19.70;99.90
5118;DHT22;2578;51.622;7.046;2023-07-09T01:05:51;19.60;99.90
5118;DHT22;2578;51.622;7.046;2023-07-09T01:08:20;19.70;99.90
5118;DHT22;2578;51.622;7.046;2023-07-09T01:10:46;19.60;99.90
5118;DHT22;2578;51.622;7.046;2023-07-09T01:13:13;19.60;99.90
5118;DHT22;2578;51.622;7.046;2023-07-09T01:15:39;19.50;99.90
5118;DHT22;2578;51.622;7.046;2023-07-09T01:18:05;19.50;99.90
5118;DHT22;2578;51.622;7.046;2023-07-09T01:20:30;19.50;99.90
5118;DHT22;2578;51.622;7.046;2023-07-09T01:22:56;19.40;99.90
5118;DHT22;2578;51.622;7.046;2023-07-09T01:25:26;19.40;99.90
5118;DHT22;2578;51.622;7.046;2023-07-09T01:27:54;19.40;99.90
5118;DHT22;2578;51.622;7.046;2023-07-09T01:30:20;19.40;99.90
5118;DHT22;2578;51.622;7.046;2023-07-09T01:32:50;19.30;99.90
5118;DHT22;2578;51.622;7.046;2023-07-09T01:35:18;19.20;99.90
5118;DHT22;2578;51.622;7.046;2023-07-09T01:37:46;19.20;99.90
5118;DHT22;2578;51.622;7.046;2023-07-09T01:40:16;19.20;99.90
5118;DHT22;2578;51.622;7.046;2023-07-09T01:42:41;19.20;99.90
5118;DHT22;2578;51.622;7.046;2023-07-09T01:45:08;19.10;99.90
5118;DHT22;2578;51.622;7.046;2023-07-09T01:47:36;19.00;99.90
5118;DHT22;2578;51.622;7.046;2023-07-09T01:50:03;18.90;99.90
5118;DHT22;2578;51.622;7.046;2023-07-09T01:52:31;18.90;99.90
5118;DHT22;2578;51.622;7.046;2023-07-09T01:54:57;18.70;99.90
5118;DHT22;2578;51.622;7.046;2023-07-09T01:59:51;18.70;99.90
5118;DHT22;2578;51.622;7.046;2023-07-09T02:02:17;18.80;99.90
5118;DHT22;2578;51.622;7.046;2023-07-09T02:04:51;18.80;99.90
5118;DHT22;2578;51.622;7.046;2023-07-09T02:07:18;18.90;99.90
5118;DHT22;2578;51.622;7.046;2023-07-09T02:09:44;18.70;99.90
5118;DHT22;2578;51.622;7.046;2023-07-09T02:12:11;18.60;99.90
5118;DHT22;2578;51.622;7.046;2023-07-09T02:14:38;18.40;99.90
5118;DHT22;2578;51.622;7.046;2023-07-09T02:17:04;18.40;99.90
5118;DHT22;2578;51.622;7.046;2023-07-09T02:19:30;18.30;99.90
5118;DHT22;2578;51.622;7.046;2023-07-09T02:21:56;18.20;99.90
5118;DHT22;2578;51.622;7.046;2023-07-09T02:24:22;17.90;99.90
5118;DHT22;2578;51.622;7.046;2023-07-09T02:26:51;17.90;99.90
5118;DHT22;2578;51.622;7.046;2023-07-09T02:29:17;17.90;99.90
5118;DHT22;2578;51.622;7.046;2023-07-09T02:31:44;18.00;99.90
5118;DHT22;2578;51.622;7.046;2023-07-09T02:36:35;18.20;99.90
5118;DHT22;2578;51.622;7.046;2023-07-09T02:39:01;18.10;99.90
5118;DHT22;2578;51.622;7.046;2023-07-09T02:41:26;18.00;99.90
5118;DHT22;2578;51.622;7.046;2023-07-09T02:43:52;18.00;99.90
5118;DHT22;2578;51.622;7.046;2023-07-09T02:46:17;18.00;99.90
5118;DHT22;2578;51.622;7.046;2023-07-09T02:48:43;18.00;99.90
5118;DHT22;2578;51.622;7.046;2023-07-09T02:51:08;18.10;99.90
5118;DHT22;2578;51.622;7.046;2023-07-09T02:53:34;18.10;99.90
5118;DHT22;2578;51.622;7.046;2023-07-09T02:56:00;18.10;99.90
5118;DHT22;2578;51.622;7.046;2023-07-09T02:58:26;18.10;99.90
5118;DHT22;2578;51.622;7.046;2023-07-09T03:00:52;18.10;99.90
5118;DHT22;2578;51.622;7.046;2023-07-09T03:03:19;18.00;99.90
5118;DHT22;2578;51.622;7.046;2023-07-09T03:05:45;17.80;99.90
5118;DHT22;2578;51.622;7.046;2023-07-09T03:08:11;18.00;99.90
5118;DHT22;2578;51.622;7.046;2023-07-09T03:10:37;17.90;99.90
5118;DHT22;2578;51.622;7.046;2023-07-09T03:13:03;17.90;99.90
5118;DHT22;2578;51.622;7.046;2023-07-09T03:15:28;17.90;99.90
5118;DHT22;2578;51.622;7.046;2023-07-09T03:17:54;17.90;99.90
5118;DHT22;2578;51.622;7.046;2023-07-09T03:20:19;18.00;99.90
5118;DHT22;2578;51.622;7.046;2023-07-09T03:22:45;17.90;99.90
5118;DHT22;2578;51.622;7.046;2023-07-09T03:25:10;18.00;99.90
5118;DHT22;2578;51.622;7.046;2023-07-09T03:27:36;18.00;99.90
5118;DHT22;2578;51.622;7.046;2023-07-09T03:30:02;17.90;99.90
5118;DHT22;2578;51.622;7.046;2023-07-09T03:32:27;17.90;99.90
5118;DHT22;2578;51.622;7.046;2023-07-09T03:34:53;17.90;99.90
5118;DHT22;2578;51.622;7.046;2023-07-09T03:37:19;17.90;99.90
5118;DHT22;2578;51.622;7.046;2023-07-09T03:39:47;18.00;99.90
5118;DHT22;2578;51.622;7.046;2023-07-09T03:42:13;17.90;99.90
5118;DHT22;2578;51.622;7.046;2023-07-09T03:44:39;17.90;99.90
5118;DHT22;2578;51.622;7.046;2023-07-09T03:47:06;17.80;99.90
5118;DHT22;2578;51.622;7.046;2023-07-09T03:49:32;17.90;99.90
5118;DHT22;2578;51.622;7.046;2023-07-09T03:51:58;17.90;99.90
5118;DHT22;2578;51.622;7.046;2023-07-09T03:54:24;18.00;99.90
5118;DHT22;2578;51.622;7.046;2023-07-09T03:56:50;17.90;99.90
5118;DHT22;2578;51.622;7.046;2023-07-09T03:59:15;18.00;99.90
5118;DHT22;2578;51.622;7.046;2023-07-09T04:01:41;18.00;99.90
5118;DHT22;2578;51.622;7.046;2023-07-09T04:04:14;17.90;99.90
5118;DHT22;2578;51.622;7.046;2023-07-09T04:06:40;17.90;99.90
5118;DHT22;2578;51.622;7.046;2023-07-09T04:09:05;17.80;99.90
5118;DHT22;2578;51.622;7.046;2023-07-09T04:11:31;17.80;99.90
5118;DHT22;2578;51.622;7.046;2023-07-09T04:13:56;17.80;99.90
5118;DHT22;2578;51.622;7.046;2023-07-09T04:16:22;17.80;99.90
5118;DHT22;2578;51.622;7.046;2023-07-09T04:18:48;17.90;99.90
5118;DHT22;2578;51.622;7.046;2023-07-09T04:21:14;18.00;99.90
5118;DHT22;2578;51.622;7.046;2023-07-09T04:23:39;18.00;99.90
5118;DHT22;2578;51.622;7.046;2023-07-09T04:26:05;18.10;99.90
5118;DHT22;2578;51.622;7.046;2023-07-09T04:28:34;18.20;99.90
5118;DHT22;2578;51.622;7.046;2023-07-09T04:31:00;18.20;99.90
5118;DHT22;2578;51.622;7.046;2023-07-09T04:33:26;18.30;99.90
5118;DHT22;2578;51.622;7.046;2023-07-09T04:35:51;18.50;99.90
5118;DHT22;2578;51.622;7.046;2023-07-09T04:38:17;18.50;99.90
5118;DHT22;2578;51.622;7.046;2023-07-09T04:40:42;18.60;99.90
5118;DHT22;2578;51.622;7.046;2023-07-09T04:43:08;18.80;99.90
5118;DHT22;2578;51.622;7.046;2023-07-09T04:45:34;19.00;99.90
5118;DHT22;2578;51.622;7.046;2023-07-09T04:48:00;19.10;99.90
5118;DHT22;2578;51.622;7.046;2023-07-09T04:50:25;19.30;99.90
5118;DHT22;2578;51.622;7.046;2023-07-09T04:52:51;19.30;99.90
5118;DHT22;2578;51.622;7.046;2023-07-09T04:55:17;19.50;99.90
5118;DHT22;2578;51.622;7.046;2023-07-09T04:57:44;19.60;99.90
5118;DHT22;2578;51.622;7.046;2023-07-09T05:00:10;19.80;99.90
5118;DHT22;2578;51.622;7.046;2023-07-09T05:02:36;20.00;99.90
5118;DHT22;2578;51.622;7.046;2023-07-09T05:05:20;20.40;99.90
5118;DHT22;2578;51.622;7.046;2023-07-09T05:07:59;20.50;99.90
5118;DHT22;2578;51.622;7.046;2023-07-09T05:10:25;20.80;99.90
5118;DHT22;2578;51.622;7.046;2023-07-09T05:12:54;21.10;99.90
5118;DHT22;2578;51.622;7.046;2023-07-09T05:15:21;21.50;99.90
5118;DHT22;2578;51.622;7.046;2023-07-09T05:17:48;21.70;99.90
5118;DHT22;2578;51.622;7.046;2023-07-09T05:20:42;22.10;99.90
5118;DHT22;2578;51.622;7.046;2023-07-09T05:23:12;22.60;99.90
5118;DHT22;2578;51.622;7.046;2023-07-09T05:25:37;23.30;99.90
5118;DHT22;2578;51.622;7.046;2023-07-09T05:28:04;23.60;99.90
5118;DHT22;2578;51.622;7.046;2023-07-09T05:30:30;24.00;99.90
5118;DHT22;2578;51.622;7.046;2023-07-09T05:32:59;24.40;99.90
5118;DHT22;2578;51.622;7.046;2023-07-09T05:35:27;24.90;99.90
5118;DHT22;2578;51.622;7.046;2023-07-09T05:37:55;24.90;99.90
5118;DHT22;2578;51.622;7.046;2023-07-09T05:40:21;24.90;99.90
5118;DHT22;2578;51.622;7.046;2023-07-09T05:42:48;24.70;99.90
5118;DHT22;2578;51.622;7.046;2023-07-09T05:45:15;24.70;99.90
5118;DHT22;2578;51.622;7.046;2023-07-09T05:47:42;24.80;99.90
5118;DHT22;2578;51.622;7.046;2023-07-09T05:50:08;24.90;99.90
5118;DHT22;2578;51.622;7.046;2023-07-09T05:59:11;25.40;99.90
5118;DHT22;2578;51.622;7.046;2023-07-09T06:01:37;25.60;99.90
5118;DHT22;2578;51.622;7.046;2023-07-09T06:04:03;25.90;99.90
5118;DHT22;2578;51.622;7.046;2023-07-09T06:06:29;25.90;99.70
5118;DHT22;2578;51.622;7.046;2023-07-09T06:08:54;26.00;99.00
5118;DHT22;2578;51.622;7.046;2023-07-09T06:11:20;25.90;98.80
5118;DHT22;2578;51.622;7.046;2023-07-09T06:13:48;26.20;98.80
5118;DHT22;2578;51.622;7.046;2023-07-09T06:16:20;26.30;96.90
5118;DHT22;2578;51.622;7.046;2023-07-09T06:18:46;26.50;96.30
5118;DHT22;2578;51.622;7.046;2023-07-09T06:21:11;26.70;95.20
5118;DHT22;2578;51.622;7.046;2023-07-09T06:23:38;26.80;94.10
5118;DHT22;2578;51.622;7.046;2023-07-09T06:26:04;27.10;91.30
5118;DHT22;2578;51.622;7.046;2023-07-09T06:28:30;27.20;90.00
5118;DHT22;2578;51.622;7.046;2023-07-09T06:30:56;27.40;86.20
5118;DHT22;2578;51.622;7.046;2023-07-09T06:33:23;27.60;87.80
5118;DHT22;2578;51.622;7.046;2023-07-09T06:35:50;27.70;79.70
5118;DHT22;2578;51.622;7.046;2023-07-09T06:38:17;27.70;80.60
5118;DHT22;2578;51.622;7.046;2023-07-09T06:40:43;27.90;78.90
5118;DHT22;2578;51.622;7.046;2023-07-09T06:43:09;28.10;74.60
5118;DHT22;2578;51.622;7.046;2023-07-09T06:45:34;28.40;68.70
5118;DHT22;2578;51.622;7.046;2023-07-09T06:48:00;28.40;69.40
5118;DHT22;2578;51.622;7.046;2023-07-09T06:50:26;28.70;68.70
5118;DHT22;2578;51.622;7.046;2023-07-09T06:52:52;29.00;67.00
5118;DHT22;2578;51.622;7.046;2023-07-09T06:55:18;29.60;59.80
5118;DHT22;2578;51.622;7.046;2023-07-09T06:57:43;29.70;59.00
5118;DHT22;2578;51.622;7.046;2023-07-09T07:00:09;29.90;47.00
5118;DHT22;2578;51.622;7.046;2023-07-09T07:02:35;30.20;46.10
5118;DHT22;2578;51.622;7.046;2023-07-09T07:05:01;30.60;44.80
5118;DHT22;2578;51.622;7.046;2023-07-09T07:07:27;30.70;42.30
5118;DHT22;2578;51.622;7.046;2023-07-09T07:09:53;30.90;35.50
5118;DHT22;2578;51.622;7.046;2023-07-09T07:12:27;31.10;26.40
5118;DHT22;2578;51.622;7.046;2023-07-09T07:14:54;31.10;25.70
5118;DHT22;2578;51.622;7.046;2023-07-09T07:17:20;31.30;25.50
5118;DHT22;2578;51.622;7.046;2023-07-09T07:19:46;31.50;24.00
5118;DHT22;2578;51.622;7.046;2023-07-09T07:22:32;31.70;18.40
5118;DHT22;2578;51.622;7.046;2023-07-09T07:24:57;32.30;11.70
5118;DHT22;2578;51.622;7.046;2023-07-09T07:27:23;32.30;9.90
5118;DHT22;2578;51.622;7.046;2023-07-09T07:29:49;32.60;7.60
5118;DHT22;2578;51.622;7.046;2023-07-09T07:32:14;32.70;2.10
5118;DHT22;2578;51.622;7.046;2023-07-09T07:34:40;32.90;1.00
5118;DHT22;2578;51.622;7.046;2023-07-09T07:37:06;32.90;1.00
5118;DHT22;2578;51.622;7.046;2023-07-09T07:39:31;33.00;1.00
5118;DHT22;2578;51.622;7.046;2023-07-09T07:41:57;33.10;1.00
5118;DHT22;2578;51.622;7.046;2023-07-09T07:44:23;33.40;1.00
5118;DHT22;2578;51.622;7.046;2023-07-09T07:46:49;33.30;1.00
5118;DHT22;2578;51.622;7.046;2023-07-09T07:49:14;33.70;1.00
5118;DHT22;2578;51.622;7.046;2023-07-09T07:51:40;34.00;1.00
5118;DHT22;2578;51.622;7.046;2023-07-09T07:54:06;34.10;1.00
5118;DHT22;2578;51.622;7.046;2023-07-09T07:56:35;34.10;1.00
5118;DHT22;2578;51.622;7.046;2023-07-09T07:59:02;34.10;1.00
5118;DHT22;2578;51.622;7.046;2023-07-09T08:01:27;34.20;1.00
5118;DHT22;2578;51.622;7.046;2023-07-09T08:03:54;34.50;1.00
5118;DHT22;2578;51.622;7.046;2023-07-09T08:06:20;34.70;1.00
5118;DHT22;2578;51.622;7.046;2023-07-09T08:08:46;34.80;1.00
5118;DHT22;2578;51.622;7.046;2023-07-09T08:11:11;34.90;1.00
5118;DHT22;2578;51.622;7.046;2023-07-09T08:13:38;35.00;1.00
5118;DHT22;2578;51.622;7.046;2023-07-09T08:16:07;35.10;1.00
5118;DHT22;2578;51.622;7.046;2023-07-09T08:18:33;35.30;1.00
5118;DHT22;2578;51.622;7.046;2023-07-09T08:21:02;35.30;1.00
5118;DHT22;2578;51.622;7.046;2023-07-09T08:23:28;35.20;1.00
5118;DHT22;2578;51.622;7.046;2023-07-09T08:25:55;35.00;1.00
5118;DHT22;2578;51.622;7.046;2023-07-09T08:28:21;35.00;1.00
5118;DHT22;2578;51.622;7.046;2023-07-09T08:30:47;35.00;1.00
5118;DHT22;2578;51.622;7.046;2023-07-09T08:33:13;34.80;1.00
5118;DHT22;2578;51.622;7.046;2023-07-09T08:35:42;34.80;1.00
5118;DHT22;2578;51.622;7.046;2023-07-09T08:38:08;34.80;1.00
5118;DHT22;2578;51.622;7.046;2023-07-09T08:40:41;34.70;1.00
5118;DHT22;2578;51.622;7.046;2023-07-09T08:43:32;34.80;1.00
5118;DHT22;2578;51.622;7.046;2023-07-09T08:46:26;34.80;1.00
5118;DHT22;2578;51.622;7.046;2023-07-09T08:48:57;34.90;1.00
5118;DHT22;2578;51.622;7.046;2023-07-09T08:51:39;35.00;1.00
5118;DHT22;2578;51.622;7.046;2023-07-09T08:54:13;35.10;1.00
5118;DHT22;2578;51.622;7.046;2023-07-09T08:56:40;35.10;1.00
5118;DHT22;2578;51.622;7.046;2023-07-09T08:59:09;35.20;1.00
5118;DHT22;2578;51.622;7.046;2023-07-09T09:01:47;35.00;1.00
5118;DHT22;2578;51.622;7.046;2023-07-09T09:04:34;35.20;1.00
5118;DHT22;2578;51.622;7.046;2023-07-09T09:09:43;35.30;1.00
5118;DHT22;2578;51.622;7.046;2023-07-09T09:12:23;35.60;1.00
5118;DHT22;2578;51.622;7.046;2023-07-09T09:14:59;35.90;1.00
5118;DHT22;2578;51.622;7.046;2023-07-09T09:17:27;36.00;1.00
5118;DHT22;2578;51.622;7.046;2023-07-09T09:19:57;36.00;1.00
5118;DHT22;2578;51.622;7.046;2023-07-09T09:22:36;36.00;1.00
5118;DHT22;2578;51.622;7.046;2023-07-09T09:28:42;36.40;1.00
5118;DHT22;2578;51.622;7.046;2023-07-09T09:31:11;36.60;1.00
5118;DHT22;2578;51.622;7.046;2023-07-09T09:33:46;36.90;1.00
5118;DHT22;2578;51.622;7.046;2023-07-09T09:36:25;37.10;1.00
5118;DHT22;2578;51.622;7.046;2023-07-09T09:38:52;37.30;1.00
5118;DHT22;2578;51.622;7.046;2023-07-09T09:41:20;37.60;1.00
5118;DHT22;2578;51.622;7.046;2023-07-09T09:43:48;37.50;1.00
5118;DHT22;2578;51.622;7.046;2023-07-09T09:46:24;37.00;1.00
5118;DHT22;2578;51.622;7.046;2023-07-09T09:48:58;36.80;1.00
5118;DHT22;2578;51.622;7.046;2023-07-09T09:51:27;37.20;1.00
5118;DHT22;2578;51.622;7.046;2023-07-09T09:54:01;37.50;1.00
5118;DHT22;2578;51.622;7.046;2023-07-09T09:56:35;37.50;1.00
5118;DHT22;2578;51.622;7.046;2023-07-09T09:59:03;37.50;1.00
5118;DHT22;2578;51.622;7.046;2023-07-09T10:01:35;37.30;1.00
5118;DHT22;2578;51.622;7.046;2023-07-09T10:04:41;36.90;1.00
5118;DHT22;2578;51.622;7.046;2023-07-09T10:10:02;36.80;1.00
5118;DHT22;2578;51.622;7.046;2023-07-09T10:12:40;37.30;1.00
5118;DHT22;2578;51.622;7.046;2023-07-09T10:21:14;37.60;1.00
5118;DHT22;2578;51.622;7.046;2023-07-09T10:26:51;37.60;1.00
5118;DHT22;2578;51.622;7.046;2023-07-09T10:29:37;38.00;1.00
5118;DHT22;2578;51.622;7.046;2023-07-09T10:34:52;37.90;1.00
5118;DHT22;2578;51.622;7.046;2023-07-09T10:37:34;38.00;1.00
5118;DHT22;2578;51.622;7.046;2023-07-09T10:40:09;38.30;1.00
5118;DHT22;2578;51.622;7.046;2023-07-09T10:42:45;38.50;1.00
5118;DHT22;2578;51.622;7.046;2023-07-09T10:45:16;38.90;1.00
5118;DHT22;2578;51.622;7.046;2023-07-09T10:48:01;38.90;1.00
5118;DHT22;2578;51.622;7.046;2023-07-09T10:50:41;39.40;1.00
5118;DHT22;2578;51.622;7.046;2023-07-09T10:56:23;39.30;1.00
5118;DHT22;2578;51.622;7.046;2023-07-09T10:59:18;38.90;1.00
5118;DHT22;2578;51.622;7.046;2023-07-09T11:01:52;38.90;1.00
5118;DHT22;2578;51.622;7.046;2023-07-09T11:07:19;39.40;1.00
5118;DHT22;2578;51.622;7.046;2023-07-09T11:09:53;39.80;1.00
5118;DHT22;2578;51.622;7.046;2023-07-09T11:12:40;39.90;1.00
5118;DHT22;2578;51.622;7.046;2023-07-09T11:15:37;40.00;1.00
5118;DHT22;2578;51.622;7.046;2023-07-09T11:18:11;40.10;1.00
5118;DHT22;2578;51.622;7.046;2023-07-09T11:24:00;39.50;1.00
5118;DHT22;2578;51.622;7.046;2023-07-09T11:26:34;39.30;1.00
5118;DHT22;2578;51.622;7.046;2023-07-09T11:31:39;39.30;1.00
5118;DHT22;2578;51.622;7.046;2023-07-09T11:34:15;39.30;1.00
5118;DHT22;2578;51.622;7.046;2023-07-09T11:36:58;39.00;1.00
5118;DHT22;2578;51.622;7.046;2023-07-09T11:39:28;39.40;1.00
5118;DHT22;2578;51.622;7.046;2023-07-09T11:41:55;39.80;1.00
5118;DHT22;2578;51.622;7.046;2023-07-09T11:44:44;40.10;1.00
5118;DHT22;2578;51.622;7.046;2023-07-09T11:47:40;40.20;1.00
5118;DHT22;2578;51.622;7.046;2023-07-09T11:50:26;40.30;1.00
5118;DHT22;2578;51.622;7.046;2023-07-09T11:53:04;40.20;1.00
5118;DHT22;2578;51.622;7.046;2023-07-09T11:55:39;40.30;1.00
5118;DHT22;2578;51.622;7.046;2023-07-09T11:58:27;40.20;1.00
5118;DHT22;2578;51.622;7.046;2023-07-09T12:00:57;40.60;1.00
5118;DHT22;2578;51.622;7.046;2023-07-09T12:03:41;40.40;1.00
5118;DHT22;2578;51.622;7.046;2023-07-09T12:06:22;40.40;1.00
5118;DHT22;2578;51.622;7.046;2023-07-09T12:08:49;40.30;1.00
5118;DHT22;2578;51.622;7.046;2023-07-09T12:11:28;40.20;1.00
5118;DHT22;2578;51.622;7.046;2023-07-09T12:14:00;40.50;1.00
5118;DHT22;2578;51.622;7.046;2023-07-09T12:16:30;40.80;1.00
5118;DHT22;2578;51.622;7.046;2023-07-09T12:18:57;40.80;1.00
5118;DHT22;2578;51.622;7.046;2023-07-09T12:21:26;40.70;1.00
5118;DHT22;2578;51.622;7.046;2023-07-09T12:23:54;40.30;1.00
5118;DHT22;2578;51.622;7.046;2023-07-09T12:26:21;40.00;1.00
5118;DHT22;2578;51.622;7.046;2023-07-09T12:28:51;40.20;1.00
5118;DHT22;2578;51.622;7.046;2023-07-09T12:31:18;40.30;1.00
5118;DHT22;2578;51.622;7.046;2023-07-09T12:33:52;40.30;1.00
5118;DHT22;2578;51.622;7.046;2023-07-09T12:36:19;40.30;1.00
5118;DHT22;2578;51.622;7.046;2023-07-09T12:38:53;40.00;1.00
5118;DHT22;2578;51.622;7.046;2023-07-09T12:41:37;39.30;1.00
5118;DHT22;2578;51.622;7.046;2023-07-09T12:44:17;39.80;1.00
5118;DHT22;2578;51.622;7.046;2023-07-09T12:46:44;39.80;1.00
5118;DHT22;2578;51.622;7.046;2023-07-09T12:49:30;39.80;1.00
5118;DHT22;2578;51.622;7.046;2023-07-09T12:52:03;39.90;1.00
5118;DHT22;2578;51.622;7.046;2023-07-09T12:54:30;40.40;1.00
5118;DHT22;2578;51.622;7.046;2023-07-09T12:56:58;40.30;1.00
5118;DHT22;2578;51.622;7.046;2023-07-09T12:59:38;40.60;1.00
5118;DHT22;2578;51.622;7.046;2023-07-09T13:02:20;40.40;1.00
5118;DHT22;2578;51.622;7.046;2023-07-09T13:04:50;40.80;1.00
5118;DHT22;2578;51.622;7.046;2023-07-09T13:07:33;40.70;1.00
5118;DHT22;2578;51.622;7.046;2023-07-09T13:10:18;41.00;1.00
5118;DHT22;2578;51.622;7.046;2023-07-09T13:12:50;41.20;1.00
5118;DHT22;2578;51.622;7.046;2023-07-09T13:15:26;41.20;1.00
5118;DHT22;2578;51.622;7.046;2023-07-09T13:18:04;41.40;1.00
5118;DHT22;2578;51.622;7.046;2023-07-09T13:20:39;41.60;1.00
5118;DHT22;2578;51.622;7.046;2023-07-09T13:23:18;41.30;1.00
5118;DHT22;2578;51.622;7.046;2023-07-09T13:25:45;41.30;1.00
5118;DHT22;2578;51.622;7.046;2023-07-09T13:28:21;41.30;1.00
5118;DHT22;2578;51.622;7.046;2023-07-09T13:30:50;41.10;1.00
5118;DHT22;2578;51.622;7.046;2023-07-09T13:33:18;40.50;1.00
5118;DHT22;2578;51.622;7.046;2023-07-09T13:35:44;39.50;1.00
5118;DHT22;2578;51.622;7.046;2023-07-09T13:38:23;39.20;1.00
5118;DHT22;2578;51.622;7.046;2023-07-09T13:40:53;39.30;1.00
5118;DHT22;2578;51.622;7.046;2023-07-09T13:43:34;39.50;1.00
5118;DHT22;2578;51.622;7.046;2023-07-09T13:46:03;39.50;1.00
5118;DHT22;2578;51.622;7.046;2023-07-09T13:48:33;39.50;1.00
5118;DHT22;2578;51.622;7.046;2023-07-09T13:50:59;39.40;1.00
5118;DHT22;2578;51.622;7.046;2023-07-09T13:53:29;39.20;1.00
5118;DHT22;2578;51.622;7.046;2023-07-09T13:55:55;39.20;1.00
5118;DHT22;2578;51.622;7.046;2023-07-09T13:58:25;38.90;1.00
5118;DHT22;2578;51.622;7.046;2023-07-09T14:00:58;38.70;1.00
5118;DHT22;2578;51.622;7.046;2023-07-09T14:03:34;38.60;1.00
5118;DHT22;2578;51.622;7.046;2023-07-09T14:05:59;38.30;1.00
5118;DHT22;2578;51.622;7.046;2023-07-09T14:08:26;38.20;1.00
5118;DHT22;2578;51.622;7.046;2023-07-09T14:10:51;37.90;1.00
5118;DHT22;2578;51.622;7.046;2023-07-09T14:13:24;37.50;1.00
5118;DHT22;2578;51.622;7.046;2023-07-09T14:15:52;37.30;1.00
5118;DHT22;2578;51.622;7.046;2023-07-09T14:18:21;36.90;1.00
5118;DHT22;2578;51.622;7.046;2023-07-09T14:20:47;36.30;1.00
5118;DHT22;2578;51.622;7.046;2023-07-09T14:23:16;35.30;1.00
5118;DHT22;2578;51.622;7.046;2023-07-09T14:25:43;35.10;1.00
5118;DHT22;2578;51.622;7.046;2023-07-09T14:28:15;34.90;1.00
5118;DHT22;2578;51.622;7.046;2023-07-09T14:30:41;34.50;1.00
5118;DHT22;2578;51.622;7.046;2023-07-09T14:33:16;33.80;1.00
5118;DHT22;2578;51.622;7.046;2023-07-09T14:35:44;33.10;1.00
5118;DHT22;2578;51.622;7.046;2023-07-09T14:38:25;32.60;1.00
5118;DHT22;2578;51.622;7.046;2023-07-09T14:40:56;31.70;1.00
5118;DHT22;2578;51.622;7.046;2023-07-09T14:43:25;30.30;1.00
5118;DHT22;2578;51.622;7.046;2023-07-09T14:45:50;28.40;80.40
5118;DHT22;2578;51.622;7.046;2023-07-09T14:48:19;27.20;99.90
5118;DHT22;2578;51.622;7.046;2023-07-09T14:50:46;25.80;99.90
5118;DHT22;2578;51.622;7.046;2023-07-09T14:53:20;24.20;99.90
5118;DHT22;2578;51.622;7.046;2023-07-09T14:55:47;22.90;99.90
5118;DHT22;2578;51.622;7.046;2023-07-09T14:58:16;22.70;99.90
5118;DHT22;2578;51.622;7.046;2023-07-09T15:00:42;22.40;99.90
5118;DHT22;2578;51.622;7.046;2023-07-09T15:03:09;22.30;99.90
5118;DHT22;2578;51.622;7.046;2023-07-09T15:05:36;22.00;99.90
5118;DHT22;2578;51.622;7.046;2023-07-09T15:08:12;22.00;99.90
5118;DHT22;2578;51.622;7.046;2023-07-09T15:10:39;22.10;99.90
5118;DHT22;2578;51.622;7.046;2023-07-09T15:13:07;21.80;99.90
5118;DHT22;2578;51.622;7.046;2023-07-09T15:15:36;21.70;99.90
5118;DHT22;2578;51.622;7.046;2023-07-09T15:18:10;21.60;99.90
5118;DHT22;2578;51.622;7.046;2023-07-09T15:20:37;21.50;99.90
5118;DHT22;2578;51.622;7.046;2023-07-09T15:23:04;21.30;99.90
5118;DHT22;2578;51.622;7.046;2023-07-09T15:25:32;21.10;99.90
5118;DHT22;2578;51.622;7.046;2023-07-09T15:27:58;21.20;99.90
5118;DHT22;2578;51.622;7.046;2023-07-09T15:30:26;21.30;99.90
5118;DHT22;2578;51.622;7.046;2023-07-09T15:32:56;21.40;99.90
5118;DHT22;2578;51.622;7.046;2023-07-09T15:35:23;21.40;99.90
5118;DHT22;2578;51.622;7.046;2023-07-09T15:37:53;21.40;99.90
5118;DHT22;2578;51.622;7.046;2023-07-09T15:40:24;21.20;99.90
5118;DHT22;2578;51.622;7.046;2023-07-09T15:42:56;21.50;99.90
5118;DHT22;2578;51.622;7.046;2023-07-09T15:45:24;21.50;99.90
5118;DHT22;2578;51.622;7.046;2023-07-09T15:47:51;21.50;99.90
5118;DHT22;2578;51.622;7.046;2023-07-09T15:50:22;21.70;99.90
5118;DHT22;2578;51.622;7.046;2023-07-09T15:52:54;21.70;99.90
5118;DHT22;2578;51.622;7.046;2023-07-09T15:55:26;21.60;99.90
5118;DHT22;2578;51.622;7.046;2023-07-09T15:57:53;21.60;99.90
5118;DHT22;2578;51.622;7.046;2023-07-09T16:00:28;21.50;99.90
5118;DHT22;2578;51.622;7.046;2023-07-09T16:02:57;21.20;99.90
5118;DHT22;2578;51.622;7.046;2023-07-09T16:05:27;21.30;99.90
5118;DHT22;2578;51.622;7.046;2023-07-09T16:07:56;21.10;99.90
5118;DHT22;2578;51.622;7.046;2023-07-09T16:10:23;20.90;99.90
5118;DHT22;2578;51.622;7.046;2023-07-09T16:12:50;20.80;99.90
5118;DHT22;2578;51.622;7.046;2023-07-09T16:15:19;20.70;99.90
5118;DHT22;2578;51.622;7.046;2023-07-09T16:17:46;20.70;99.90
5118;DHT22;2578;51.622;7.046;2023-07-09T16:20:27;20.60;99.90
5118;DHT22;2578;51.622;7.046;2023-07-09T16:22:55;20.70;99.90
5118;DHT22;2578;51.622;7.046;2023-07-09T16:25:25;20.70;99.90
5118;DHT22;2578;51.622;7.046;2023-07-09T16:27:51;20.70;99.90
5118;DHT22;2578;51.622;7.046;2023-07-09T16:30:26;20.80;99.90
5118;DHT22;2578;51.622;7.046;2023-07-09T16:32:56;21.00;99.90
5118;DHT22;2578;51.622;7.046;2023-07-09T16:35:24;21.20;99.90
5118;DHT22;2578;51.622;7.046;2023-07-09T16:37:51;21.40;99.90
5118;DHT22;2578;51.622;7.046;2023-07-09T16:40:23;21.30;99.90
5118;DHT22;2578;51.622;7.046;2023-07-09T16:42:50;21.40;99.90
5118;DHT22;2578;51.622;7.046;2023-07-09T16:45:18;21.60;99.90
5118;DHT22;2578;51.622;7.046;2023-07-09T16:47:44;21.70;99.90
5118;DHT22;2578;51.622;7.046;2023-07-09T16:50:16;21.60;99.90
5118;DHT22;2578;51.622;7.046;2023-07-09T16:52:42;21.60;99.90
5118;DHT22;2578;51.622;7.046;2023-07-09T16:55:13;21.80;99.90
5118;DHT22;2578;51.622;7.046;2023-07-09T16:57:39;21.90;99.90
5118;DHT22;2578;51.622;7.046;2023-07-09T17:02:47;21.90;99.90
5118;DHT22;2578;51.622;7.046;2023-07-09T17:05:12;21.80;99.90
5118;DHT22;2578;51.622;7.046;2023-07-09T17:07:38;21.80;99.90
5118;DHT22;2578;51.622;7.046;2023-07-09T17:10:04;21.80;99.90
5118;DHT22;2578;51.622;7.046;2023-07-09T17:12:30;21.90;99.90